createdAt,value
2018-08-11T00:00:31.815Z,17.20
2018-08-11T00:03:01.955Z,17.10
2018-08-11T00:05:29.764Z,17.10
2018-08-11T00:07:57.580Z,17.20
2018-08-11T00:10:25.309Z,17.10
2018-08-11T00:12:53.022Z,17.20
2018-08-11T00:15:21.095Z,17.20
2018-08-11T00:17:49.063Z,17.30
2018-08-11T00:20:18.822Z,17.20
2018-08-11T00:22:46.597Z,17.30
2018-08-11T00:25:15.389Z,17.30
2018-08-11T00:27:43.144Z,17.30
2018-08-11T00:30:12.627Z,17.30
2018-08-11T00:32:40.329Z,17.30
2018-08-11T00:35:09.451Z,17.40
2018-08-11T00:37:37.179Z,17.30
2018-08-11T00:40:10.292Z,17.30
2018-08-11T00:42:38.078Z,17.20
2018-08-11T00:45:07.633Z,17.20
2018-08-11T00:47:35.395Z,17.20
2018-08-11T00:50:04.179Z,17.10
2018-08-11T00:52:31.995Z,17.10
2018-08-11T00:54:59.702Z,17.00
2018-08-11T00:57:27.313Z,16.90
2018-08-11T00:59:54.934Z,16.80
2018-08-11T01:02:22.616Z,16.60
2018-08-11T01:04:50.164Z,16.60
2018-08-11T01:07:17.771Z,16.60
2018-08-11T01:09:45.443Z,16.40
2018-08-11T01:12:13.256Z,16.30
2018-08-11T01:14:40.936Z,16.30
2018-08-11T01:17:08.562Z,16.30
2018-08-11T01:19:36.193Z,16.20
2018-08-11T01:22:03.940Z,16.20
2018-08-11T01:24:31.416Z,16.20
2018-08-11T01:26:58.943Z,16.20
2018-08-11T01:29:26.491Z,16.20
2018-08-11T01:31:54.006Z,16.10
2018-08-11T01:34:21.688Z,16.10
2018-08-11T01:36:49.160Z,16.10
2018-08-11T01:39:16.855Z,16.00
2018-08-11T01:41:44.556Z,15.90
2018-08-11T01:44:12.330Z,15.90
2018-08-11T01:46:40.057Z,15.80
2018-08-11T01:49:07.650Z,15.80
2018-08-11T01:51:35.695Z,15.80
2018-08-11T01:54:03.432Z,15.80
2018-08-11T01:56:31.130Z,15.80
2018-08-11T01:58:58.811Z,15.70
2018-08-11T02:01:26.423Z,15.60
2018-08-11T02:03:54.196Z,15.50
2018-08-11T02:06:28.658Z,15.60
2018-08-11T02:08:56.459Z,15.50
2018-08-11T02:11:24.183Z,15.40
2018-08-11T02:13:51.876Z,15.40
2018-08-11T02:16:19.505Z,15.30
2018-08-11T02:18:47.137Z,15.20
2018-08-11T02:21:16.235Z,15.10
2018-08-11T02:23:43.970Z,14.90
2018-08-11T02:26:11.797Z,14.90
2018-08-11T02:28:39.631Z,14.70
2018-08-11T02:31:07.324Z,14.50
2018-08-11T02:33:34.890Z,14.40
2018-08-11T02:36:02.406Z,14.20
2018-08-11T02:38:29.993Z,14.20
2018-08-11T02:40:57.590Z,14.20
2018-08-11T02:43:25.095Z,14.10
2018-08-11T02:45:52.676Z,13.90
2018-08-11T02:48:20.326Z,13.90
2018-08-11T02:50:47.998Z,13.80
2018-08-11T02:53:15.722Z,13.80
2018-08-11T02:55:43.240Z,13.80
2018-08-11T02:58:10.826Z,13.70
2018-08-11T03:00:38.434Z,13.80
2018-08-11T03:03:06.000Z,13.70
2018-08-11T03:05:33.571Z,13.70
2018-08-11T03:08:01.078Z,13.70
2018-08-11T03:10:28.670Z,13.60
2018-08-11T03:12:56.252Z,13.70
2018-08-11T03:15:23.725Z,13.60
2018-08-11T03:17:51.418Z,13.50
2018-08-11T03:20:18.931Z,13.50
2018-08-11T03:22:46.642Z,13.50
2018-08-11T03:25:14.182Z,13.50
2018-08-11T03:27:41.679Z,13.40
2018-08-11T03:30:09.357Z,13.30
2018-08-11T03:32:36.954Z,13.30
2018-08-11T03:35:05.163Z,13.30
2018-08-11T03:37:32.886Z,13.30
2018-08-11T03:40:00.774Z,13.30
2018-08-11T03:42:28.267Z,13.30
2018-08-11T03:44:55.769Z,13.40
2018-08-11T03:47:23.665Z,13.30
2018-08-11T03:49:51.290Z,13.30
2018-08-11T03:52:18.784Z,13.30
2018-08-11T03:54:46.274Z,13.30
2018-08-11T03:57:14.116Z,13.20
2018-08-11T03:59:41.676Z,13.20
2018-08-11T04:02:09.206Z,13.20
2018-08-11T04:04:36.802Z,13.30
2018-08-11T04:07:04.496Z,13.30
2018-08-11T04:09:32.039Z,13.30
2018-08-11T04:11:59.603Z,13.20
2018-08-11T04:14:27.135Z,13.20
2018-08-11T04:16:54.628Z,13.10
2018-08-11T04:19:22.161Z,13.10
2018-08-11T04:21:49.742Z,13.00
2018-08-11T04:24:17.371Z,13.00
2018-08-11T04:26:45.080Z,13.00
2018-08-11T04:29:12.696Z,13.10
2018-08-11T04:31:40.427Z,13.10
2018-08-11T04:34:08.427Z,13.10
2018-08-11T04:36:36.094Z,13.10
2018-08-11T04:39:06.502Z,13.10
2018-08-11T04:41:34.251Z,13.10
2018-08-11T04:44:01.948Z,13.10
2018-08-11T04:46:29.648Z,13.10
2018-08-11T04:48:57.407Z,13.00
2018-08-11T04:51:25.085Z,13.00
2018-08-11T04:53:52.963Z,12.90
2018-08-11T04:56:20.783Z,12.90
2018-08-11T04:58:48.570Z,13.00
2018-08-11T05:01:16.429Z,13.00
2018-08-11T05:03:44.139Z,13.00
2018-08-11T05:06:13.116Z,13.00
2018-08-11T05:08:40.903Z,13.00
2018-08-11T05:11:08.897Z,13.00
2018-08-11T05:13:36.731Z,13.00
2018-08-11T05:16:04.518Z,13.00
2018-08-11T05:18:32.297Z,13.00
2018-08-11T05:21:00.094Z,13.00
2018-08-11T05:23:27.866Z,13.00
2018-08-11T05:25:55.503Z,13.00
2018-08-11T05:28:23.248Z,13.10
2018-08-11T05:30:51.137Z,13.10
2018-08-11T05:33:19.075Z,13.10
2018-08-11T05:35:46.851Z,13.10
2018-08-11T05:38:14.596Z,13.20
2018-08-11T05:40:42.514Z,13.20
2018-08-11T05:43:10.234Z,13.30
2018-08-11T05:45:37.903Z,13.30
2018-08-11T05:48:05.654Z,13.30
2018-08-11T05:50:33.312Z,13.40
2018-08-11T05:53:00.957Z,13.40
2018-08-11T05:55:29.044Z,13.40
2018-08-11T05:57:57.160Z,13.40
2018-08-11T06:00:26.090Z,13.40
2018-08-11T06:02:53.613Z,13.50
2018-08-11T06:05:21.195Z,13.80
2018-08-11T06:07:48.870Z,14.00
2018-08-11T06:10:16.454Z,14.20
2018-08-11T06:12:43.966Z,14.40
2018-08-11T06:15:11.698Z,14.40
2018-08-11T06:17:39.422Z,14.50
2018-08-11T06:20:08.162Z,14.50
2018-08-11T06:22:35.918Z,14.70
2018-08-11T06:25:04.514Z,14.90
2018-08-11T06:27:32.151Z,14.90
2018-08-11T06:29:59.920Z,15.00
2018-08-11T06:32:27.741Z,15.10
2018-08-11T06:34:55.688Z,15.10
2018-08-11T06:37:23.444Z,15.30
2018-08-11T06:39:51.112Z,15.30
2018-08-11T06:42:18.714Z,15.30
2018-08-11T06:44:46.279Z,15.20
2018-08-11T06:47:13.916Z,15.20
2018-08-11T06:49:41.508Z,15.40
2018-08-11T06:52:08.979Z,15.50
2018-08-11T06:54:36.501Z,15.80
2018-08-11T06:57:04.106Z,15.70
2018-08-11T06:59:33.062Z,15.70
2018-08-11T07:02:01.300Z,15.50
2018-08-11T07:04:28.866Z,15.60
2018-08-11T07:06:56.567Z,15.70
2018-08-11T07:09:24.003Z,16.20
2018-08-11T07:11:51.647Z,16.50
2018-08-11T07:14:19.148Z,16.70
2018-08-11T07:16:46.743Z,16.60
2018-08-11T07:19:14.233Z,16.30
2018-08-11T07:21:41.714Z,16.00
2018-08-11T07:24:09.246Z,16.10
2018-08-11T07:26:37.067Z,16.20
2018-08-11T07:29:04.928Z,16.10
2018-08-11T07:31:32.384Z,16.20
2018-08-11T07:33:59.789Z,16.50
2018-08-11T07:36:27.338Z,16.70
2018-08-11T07:38:54.999Z,16.70
2018-08-11T07:41:22.708Z,17.10
2018-08-11T07:43:50.224Z,17.20
2018-08-11T07:46:17.887Z,17.10
2018-08-11T07:48:45.457Z,17.10
2018-08-11T07:51:13.056Z,16.90
2018-08-11T07:53:40.914Z,17.10
2018-08-11T07:56:08.487Z,17.20
2018-08-11T07:58:36.029Z,17.40
2018-08-11T08:01:03.666Z,17.70
2018-08-11T08:03:31.108Z,17.70
2018-08-11T08:05:59.228Z,17.70
2018-08-11T08:08:26.678Z,17.80
2018-08-11T08:10:54.211Z,17.80
2018-08-11T08:13:21.725Z,17.80
2018-08-11T08:15:49.188Z,17.60
2018-08-11T08:18:16.695Z,17.90
2018-08-11T08:20:44.333Z,18.30
2018-08-11T08:23:11.922Z,18.50
2018-08-11T08:25:39.512Z,18.60
2018-08-11T08:28:06.939Z,18.60
2018-08-11T08:30:34.885Z,18.40
2018-08-11T08:33:02.435Z,18.50
2018-08-11T08:35:29.999Z,18.60
2018-08-11T08:37:57.494Z,18.60
2018-08-11T08:40:24.989Z,18.50
2018-08-11T08:42:52.519Z,18.50
2018-08-11T08:45:20.296Z,18.60
2018-08-11T08:47:47.861Z,18.60
2018-08-11T08:50:15.285Z,18.80
2018-08-11T08:52:42.786Z,18.90
2018-08-11T08:55:10.273Z,19.00
2018-08-11T08:57:37.781Z,18.80
2018-08-11T09:00:05.424Z,18.80
2018-08-11T09:02:33.064Z,18.80
2018-08-11T09:05:00.582Z,18.70
2018-08-11T09:07:28.600Z,18.50
2018-08-11T09:09:56.212Z,18.20
2018-08-11T09:12:23.745Z,18.00
2018-08-11T09:14:51.471Z,18.20
2018-08-11T09:17:19.145Z,18.40
2018-08-11T09:19:46.788Z,18.50
2018-08-11T09:22:14.425Z,18.30
2018-08-11T09:24:41.948Z,18.40
2018-08-11T09:27:10.099Z,18.60
2018-08-11T09:29:37.748Z,18.70
2018-08-11T09:32:05.950Z,18.60
2018-08-11T09:34:33.708Z,18.50
2018-08-11T09:37:01.510Z,18.50
2018-08-11T09:39:29.503Z,18.50
2018-08-11T09:41:58.276Z,18.90
2018-08-11T09:44:27.323Z,19.10
2018-08-11T09:46:55.784Z,18.80
2018-08-11T09:49:24.259Z,19.10
2018-08-11T09:51:52.017Z,19.40
2018-08-11T09:54:19.712Z,19.40
2018-08-11T09:56:47.293Z,19.30
2018-08-11T09:59:14.721Z,19.00
2018-08-11T10:01:43.447Z,19.00
2018-08-11T10:04:11.596Z,18.90
2018-08-11T10:06:39.063Z,18.80
2018-08-11T10:09:08.259Z,18.90
2018-08-11T10:11:35.832Z,19.10
2018-08-11T10:14:03.379Z,19.10
2018-08-11T10:16:30.885Z,19.20
2018-08-11T10:18:58.576Z,19.30
2018-08-11T10:21:26.047Z,19.40
2018-08-11T10:23:53.603Z,19.70
2018-08-11T10:26:21.067Z,20.10
2018-08-11T10:28:48.775Z,20.20
2018-08-11T10:31:16.274Z,19.80
2018-08-11T10:33:43.812Z,19.50
2018-08-11T10:36:12.006Z,19.50
2018-08-11T10:38:39.655Z,19.30
2018-08-11T10:41:07.275Z,19.60
2018-08-11T10:43:34.999Z,20.00
2018-08-11T10:46:02.707Z,20.20
2018-08-11T10:48:30.410Z,20.30
2018-08-11T10:50:57.937Z,20.30
2018-08-11T10:53:25.469Z,20.20
2018-08-11T10:55:53.037Z,20.10
2018-08-11T10:58:20.518Z,20.10
2018-08-11T11:00:48.132Z,19.90
2018-08-11T11:03:15.858Z,19.90
2018-08-11T11:05:43.702Z,19.70
2018-08-11T11:08:11.890Z,19.60
2018-08-11T11:10:39.389Z,19.40
2018-08-11T11:13:07.309Z,19.40
2018-08-11T11:15:34.836Z,19.50
2018-08-11T11:18:02.428Z,19.50
2018-08-11T11:20:30.234Z,19.10
2018-08-11T11:22:59.026Z,18.80
2018-08-11T11:25:26.660Z,19.00
2018-08-11T11:27:54.195Z,19.00
2018-08-11T11:30:21.806Z,19.10
2018-08-11T11:32:49.391Z,19.20
2018-08-11T11:35:17.145Z,19.50
2018-08-11T11:37:44.772Z,19.70
2018-08-11T11:40:12.418Z,19.60
2018-08-11T11:42:40.110Z,19.30
2018-08-11T11:45:07.716Z,18.90
2018-08-11T11:47:35.346Z,18.50
2018-08-11T11:50:02.992Z,18.30
2018-08-11T11:52:30.593Z,18.30
2018-08-11T11:54:58.262Z,18.50
2018-08-11T11:57:25.858Z,18.60
2018-08-11T11:59:53.443Z,18.70
2018-08-11T12:02:21.108Z,18.80
2018-08-11T12:04:48.721Z,18.90
2018-08-11T12:07:16.318Z,18.80
2018-08-11T12:09:43.814Z,18.50
2018-08-11T12:12:11.383Z,18.40
2018-08-11T12:14:39.365Z,18.20
2018-08-11T12:17:06.902Z,17.70
2018-08-11T12:19:34.561Z,17.20
2018-08-11T12:22:02.061Z,16.80
2018-08-11T12:24:29.765Z,16.70
2018-08-11T12:26:57.408Z,16.70
2018-08-11T12:29:25.761Z,16.70
2018-08-11T12:31:53.428Z,16.80
2018-08-11T12:34:21.063Z,16.70
2018-08-11T12:36:48.734Z,16.60
2018-08-11T12:39:16.379Z,16.20
2018-08-11T12:41:43.867Z,16.50
2018-08-11T12:44:11.632Z,16.80
2018-08-11T12:46:39.183Z,16.90
2018-08-11T12:49:06.607Z,17.20
2018-08-11T12:51:34.307Z,17.30
2018-08-11T12:54:01.859Z,17.50
2018-08-11T12:56:29.367Z,17.70
2018-08-11T12:58:56.947Z,18.00
2018-08-11T13:01:24.521Z,18.30
2018-08-11T13:03:51.973Z,18.50
2018-08-11T13:06:19.529Z,18.60
2018-08-11T13:08:46.992Z,18.70
2018-08-11T13:11:14.552Z,18.80
2018-08-11T13:13:42.086Z,18.90
2018-08-11T13:16:09.583Z,19.10
2018-08-11T13:18:37.063Z,19.10
2018-08-11T13:21:04.551Z,19.00
2018-08-11T13:23:36.301Z,18.80
2018-08-11T13:26:03.966Z,18.70
2018-08-11T13:28:31.363Z,18.60
2018-08-11T13:30:58.858Z,18.40
2018-08-11T13:33:44.368Z,17.90
2018-08-11T13:36:11.884Z,17.60
2018-08-11T13:38:39.448Z,17.20
2018-08-11T13:41:07.224Z,16.80
2018-08-11T13:43:34.662Z,16.80
2018-08-11T13:46:26.136Z,16.80
2018-08-11T13:48:53.836Z,16.80
2018-08-11T13:51:21.396Z,16.80
2018-08-11T13:53:49.022Z,16.90
2018-08-11T13:56:16.611Z,17.00
2018-08-11T13:58:44.158Z,17.20
2018-08-11T14:01:11.650Z,17.40
2018-08-11T14:03:39.152Z,17.40
2018-08-11T14:06:06.767Z,17.40
2018-08-11T14:08:34.339Z,17.40
2018-08-11T14:11:01.895Z,17.50
2018-08-11T14:13:29.375Z,17.50
2018-08-11T14:15:56.938Z,17.40
2018-08-11T14:18:24.896Z,17.50
2018-08-11T14:20:52.392Z,17.40
2018-08-11T14:23:19.863Z,17.40
2018-08-11T14:25:47.505Z,17.40
2018-08-11T14:28:15.008Z,17.40
2018-08-11T14:30:42.537Z,17.50
2018-08-11T14:33:10.033Z,17.50
2018-08-11T14:35:37.551Z,17.60
2018-08-11T14:38:05.125Z,17.60
2018-08-11T14:40:32.629Z,17.70
2018-08-11T14:43:00.068Z,17.80
2018-08-11T14:45:27.666Z,18.00
2018-08-11T14:47:55.161Z,18.30
2018-08-11T14:50:22.770Z,18.50
2018-08-11T14:52:50.430Z,18.60
2018-08-11T14:55:18.386Z,18.70
2018-08-11T14:57:46.248Z,18.80
2018-08-11T15:00:13.751Z,18.80
2018-08-11T15:02:41.392Z,18.70
2018-08-11T15:05:09.465Z,18.70
2018-08-11T15:07:37.620Z,18.60
2018-08-11T15:10:11.046Z,18.30
2018-08-11T15:12:38.605Z,17.90
2018-08-11T15:15:07.293Z,17.80
2018-08-11T15:17:34.805Z,17.60
2018-08-11T15:20:02.484Z,17.30
2018-08-11T15:22:31.259Z,17.40
2018-08-11T15:24:58.736Z,17.40
2018-08-11T15:27:26.355Z,17.50
2018-08-11T15:29:55.701Z,17.60
2018-08-11T15:32:46.353Z,17.70
2018-08-11T15:35:14.336Z,17.70
2018-08-11T15:37:41.986Z,17.70
2018-08-11T15:40:12.738Z,17.70
2018-08-11T15:42:40.681Z,17.70
2018-08-11T15:45:08.227Z,17.60
2018-08-11T15:47:36.221Z,17.60
2018-08-11T15:50:04.200Z,17.60
2018-08-11T15:52:31.955Z,17.60
2018-08-11T15:54:59.451Z,17.60
2018-08-11T15:57:27.028Z,17.70
2018-08-11T15:59:54.575Z,17.70
2018-08-11T16:02:22.039Z,17.70
2018-08-11T16:04:49.605Z,17.70
2018-08-11T16:07:17.051Z,17.70
2018-08-11T16:09:44.488Z,17.80
2018-08-11T16:12:12.019Z,17.90
2018-08-11T16:14:39.516Z,18.10
2018-08-11T16:17:07.298Z,18.30
2018-08-11T16:19:35.056Z,18.60
2018-08-11T16:22:02.665Z,18.70
2018-08-11T16:24:30.176Z,18.80
2018-08-11T16:26:57.748Z,18.80
2018-08-11T16:29:25.265Z,18.80
2018-08-11T16:31:52.751Z,18.80
2018-08-11T16:34:20.255Z,18.90
2018-08-11T16:36:47.751Z,18.90
2018-08-11T16:39:15.325Z,19.00
2018-08-11T16:41:42.840Z,19.00
2018-08-11T16:44:10.288Z,18.90
2018-08-11T16:46:37.853Z,18.80
2018-08-11T16:49:05.814Z,18.80
2018-08-11T16:51:33.462Z,18.80
2018-08-11T16:54:00.930Z,18.90
2018-08-11T16:56:28.385Z,18.90
2018-08-11T16:58:55.887Z,18.80
2018-08-11T17:01:23.551Z,18.70
2018-08-11T17:03:51.064Z,18.80
2018-08-11T17:06:18.836Z,18.80
2018-08-11T17:08:46.431Z,18.70
2018-08-11T17:11:13.936Z,18.70
2018-08-11T17:13:41.594Z,18.70
2018-08-11T17:16:09.294Z,18.60
2018-08-11T17:18:36.903Z,18.60
2018-08-11T17:21:04.477Z,18.60
2018-08-11T17:23:32.479Z,18.60
2018-08-11T17:26:00.077Z,18.60
2018-08-11T17:28:27.624Z,18.60
2018-08-11T17:30:55.142Z,18.60
2018-08-11T17:33:22.836Z,18.60
2018-08-11T17:35:50.313Z,18.60
2018-08-11T17:38:17.870Z,18.60
2018-08-11T17:40:45.352Z,18.50
2018-08-11T17:43:12.806Z,18.60
2018-08-11T17:45:40.270Z,18.50
2018-08-11T17:48:07.793Z,18.50
2018-08-11T17:50:35.300Z,18.50
2018-08-11T17:53:02.836Z,18.50
2018-08-11T17:55:30.591Z,18.40
2018-08-11T17:57:58.084Z,18.50
2018-08-11T18:00:25.790Z,18.40
2018-08-11T18:02:53.239Z,18.30
2018-08-11T18:05:20.687Z,18.30
2018-08-11T18:07:48.185Z,18.30
2018-08-11T18:10:15.634Z,18.20
2018-08-11T18:12:43.192Z,18.20
2018-08-11T18:15:11.260Z,18.20
2018-08-11T18:17:38.809Z,18.10
2018-08-11T18:20:06.501Z,18.10
2018-08-11T18:22:34.044Z,18.10
2018-08-11T18:25:01.653Z,18.00
2018-08-11T18:27:29.308Z,18.00
2018-08-11T18:29:56.950Z,17.90
2018-08-11T18:32:24.796Z,17.90
2018-08-11T18:34:52.362Z,17.90
2018-08-11T18:37:23.943Z,17.90
2018-08-11T18:39:51.916Z,17.80
2018-08-11T18:42:19.710Z,17.70
2018-08-11T18:44:50.955Z,17.70
2018-08-11T18:47:18.547Z,17.70
2018-08-11T18:49:46.979Z,17.60
2018-08-11T18:52:14.591Z,17.50
2018-08-11T18:54:42.120Z,17.50
2018-08-11T18:57:09.671Z,17.50
2018-08-11T18:59:37.157Z,17.50
2018-08-11T19:02:04.818Z,17.40
2018-08-11T19:04:32.394Z,17.40
2018-08-11T19:06:59.851Z,17.30
2018-08-11T19:09:27.341Z,17.30
2018-08-11T19:11:54.875Z,17.20
2018-08-11T19:14:22.696Z,17.20
2018-08-11T19:16:50.360Z,17.10
2018-08-11T19:19:17.848Z,17.10
2018-08-11T19:21:45.450Z,17.10
2018-08-11T19:24:13.012Z,17.10
2018-08-11T19:26:40.633Z,17.00
2018-08-11T19:29:08.223Z,16.90
2018-08-11T19:31:35.896Z,16.80
2018-08-11T19:34:03.452Z,16.80
2018-08-11T19:36:30.968Z,16.70
2018-08-11T19:38:58.503Z,16.60
2018-08-11T19:41:26.100Z,16.60
2018-08-11T19:43:56.776Z,16.40
2018-08-11T19:46:24.441Z,16.30
2018-08-11T19:48:52.105Z,16.20
2018-08-11T19:51:19.707Z,16.10
2018-08-11T19:53:47.218Z,16.20
2018-08-11T19:56:14.768Z,16.30
2018-08-11T19:58:42.323Z,16.30
2018-08-11T20:01:10.021Z,16.30
2018-08-11T20:03:37.771Z,16.20
2018-08-11T20:06:07.178Z,16.10
2018-08-11T20:08:35.277Z,16.10
2018-08-11T20:11:03.854Z,16.00
2018-08-11T20:13:31.381Z,16.00
2018-08-11T20:15:58.928Z,15.90
2018-08-11T20:18:26.439Z,15.90
2018-08-11T20:20:54.004Z,15.80
2018-08-11T20:23:21.524Z,15.80
2018-08-11T20:25:49.116Z,15.80
2018-08-11T20:28:17.612Z,15.80
2018-08-11T20:30:45.376Z,15.80
2018-08-11T20:33:13.026Z,15.70
2018-08-11T20:35:40.654Z,15.70
2018-08-11T20:38:08.248Z,15.60
2018-08-11T20:40:35.892Z,15.60
2018-08-11T20:43:03.660Z,15.50
2018-08-11T20:45:31.150Z,15.40
2018-08-11T20:47:58.732Z,15.20
2018-08-11T20:50:26.753Z,15.10
2018-08-11T20:52:54.337Z,15.10
2018-08-11T20:55:21.859Z,15.20
2018-08-11T20:57:49.420Z,15.30
2018-08-11T21:00:16.890Z,15.30
2018-08-11T21:02:44.376Z,15.20
2018-08-11T21:05:13.224Z,15.10
2018-08-11T21:07:40.744Z,15.00
2018-08-11T21:10:11.233Z,14.90
2018-08-11T21:12:39.140Z,14.90
2018-08-11T21:15:07.249Z,14.80
2018-08-11T21:17:35.244Z,14.80
2018-08-11T21:20:03.373Z,14.70
2018-08-11T21:22:30.896Z,14.60
2018-08-11T21:24:58.380Z,14.70
2018-08-11T21:27:26.036Z,14.60
2018-08-11T21:29:53.976Z,14.60
2018-08-11T21:32:21.528Z,14.50
2018-08-11T21:34:49.778Z,14.50
2018-08-11T21:37:17.245Z,14.50
2018-08-11T21:39:44.767Z,14.60
2018-08-11T21:42:12.332Z,14.50
2018-08-11T21:44:40.026Z,14.50
2018-08-11T21:47:07.555Z,14.50
2018-08-11T21:49:35.158Z,14.50
2018-08-11T21:52:02.824Z,14.50
2018-08-11T21:54:30.287Z,14.50
2018-08-11T21:56:57.829Z,14.40
2018-08-11T21:59:25.371Z,14.40
2018-08-11T22:01:52.968Z,14.40
2018-08-11T22:04:20.576Z,14.20
2018-08-11T22:06:48.499Z,14.20
2018-08-11T22:09:15.978Z,14.20
2018-08-11T22:11:43.446Z,14.20
2018-08-11T22:14:11.028Z,14.20
2018-08-11T22:16:38.521Z,14.20
2018-08-11T22:19:06.106Z,14.20
2018-08-11T22:21:33.652Z,14.10
2018-08-11T22:24:01.168Z,14.00
2018-08-11T22:26:28.612Z,13.90
2018-08-11T22:28:56.291Z,13.80
2018-08-11T22:31:23.879Z,13.80
2018-08-11T22:33:51.729Z,13.80
2018-08-11T22:36:19.311Z,13.80
2018-08-11T22:38:46.823Z,13.70
2018-08-11T22:41:14.399Z,13.70
2018-08-11T22:43:41.906Z,13.70
2018-08-11T22:46:10.074Z,13.70
2018-08-11T22:48:37.600Z,13.60
2018-08-11T22:51:05.285Z,13.60
2018-08-11T22:53:32.855Z,13.60
2018-08-11T22:56:00.380Z,13.60
2018-08-11T22:58:27.932Z,13.50
2018-08-11T23:00:55.563Z,13.50
2018-08-11T23:03:23.139Z,13.40
2018-08-11T23:05:50.647Z,13.30
2018-08-11T23:08:18.131Z,13.30
2018-08-11T23:10:45.595Z,13.30
2018-08-11T23:13:13.326Z,13.40
2018-08-11T23:15:41.023Z,13.40
2018-08-11T23:18:08.499Z,13.30
2018-08-11T23:20:36.096Z,13.60
2018-08-11T23:23:03.646Z,13.50
2018-08-11T23:25:31.170Z,13.40
2018-08-11T23:27:58.705Z,13.30
2018-08-11T23:30:26.253Z,13.30
2018-08-11T23:32:53.867Z,13.20
2018-08-11T23:35:21.402Z,13.20
2018-08-11T23:37:48.965Z,13.10
2018-08-11T23:40:16.502Z,13.20
2018-08-11T23:42:44.102Z,13.20
2018-08-11T23:45:14.904Z,13.20
2018-08-11T23:47:42.597Z,13.10
2018-08-11T23:50:11.181Z,13.10
2018-08-11T23:52:39.410Z,13.10
2018-08-11T23:55:08.042Z,13.10
2018-08-11T23:57:36.176Z,13.20
